Time;durP1;ratioP1;P1;durP2;ratioP2;P2;SDS_P1;SDS_P2;PMS_P1;PMS_P2;Temp;Humidity;BMP_temperature;BMP_pressure;BME280_temperature;BME280_humidity;BME280_pressure;Samples;Min_cycle;Max_cycle;Signal;HPM_P1;HPM_P2
2023/06/29 00:00:25;;;;;;;1.60;1.50;;;19.20;64.30;18.20;96606.00;;;;5010151;28;20202;-83
2023/06/29 00:02:53;;;;;;;1.50;1.40;;;19.20;64.40;18.20;96599.00;;;;5008583;28;20212;-83
2023/06/29 00:05:21;;;;;;;1.50;1.40;;;19.10;64.50;18.20;96603.00;;;;4999583;28;20663;-83
2023/06/29 00:07:48;;;;;;;1.60;1.50;;;19.10;64.60;18.10;96603.00;;;;5003884;28;20195;-83
2023/06/29 00:10:16;;;;;;;1.37;1.27;;;19.10;64.60;18.10;96604.00;;;;5007363;28;20223;-83
2023/06/29 00:12:43;;;;;;;1.60;1.50;;;19.00;64.60;18.10;96601.00;;;;5004072;28;20294;-83
2023/06/29 00:15:12;;;;;;;2.13;1.43;;;19.00;65.40;18.00;96594.00;;;;5009109;28;20198;-83
2023/06/29 00:17:39;;;;;;;1.70;1.60;;;19.00;64.80;18.00;96596.00;;;;5004057;28;20683;-83
2023/06/29 00:20:10;;;;;;;1.70;1.60;;;18.90;65.00;18.00;96603.00;;;;4996973;28;20227;-83
2023/06/29 00:22:40;;;;;;;1.93;1.83;;;18.90;65.20;18.00;96600.00;;;;5011714;28;20206;-83
2023/06/29 00:25:09;;;;;;;2.13;1.93;;;18.90;65.20;17.90;96604.00;;;;5005031;28;20226;-83
2023/06/29 00:27:36;;;;;;;2.00;1.80;;;18.90;65.30;17.90;96601.00;;;;5001303;28;20199;-83
2023/06/29 00:30:05;;;;;;;1.70;1.53;;;18.90;65.40;17.90;96599.00;;;;4987390;28;20237;-83
2023/06/29 00:32:33;;;;;;;1.53;1.43;;;18.80;65.30;17.80;96597.00;;;;4993875;28;20213;-83
2023/06/29 00:35:01;;;;;;;2.63;1.70;;;18.80;65.60;17.80;96602.00;;;;4992178;28;20574;-83
2023/06/29 00:37:28;;;;;;;1.87;1.70;;;18.70;65.60;17.80;96599.00;;;;5000272;28;20209;-83
2023/06/29 00:39:55;;;;;;;2.13;1.57;;;18.70;65.60;17.80;96593.00;;;;5005637;28;20822;-83
2023/06/29 00:42:22;;;;;;;1.60;1.50;;;18.70;65.70;17.70;96596.00;;;;5013361;28;20558;-83
2023/06/29 00:44:49;;;;;;;1.80;1.57;;;18.70;65.80;17.70;96593.00;;;;5006851;28;20194;-83
2023/06/29 00:47:17;;;;;;;2.40;2.10;;;18.60;65.90;17.70;96595.00;;;;5010855;28;20584;-83
2023/06/29 00:49:46;;;;;;;2.03;1.40;;;18.60;65.90;17.70;96594.00;;;;5004610;28;20225;-83
2023/06/29 00:52:13;;;;;;;1.80;1.70;;;18.60;65.90;17.60;96586.00;;;;5005301;28;20226;-83
2023/06/29 00:54:41;;;;;;;1.80;1.70;;;18.60;66.00;17.60;96591.00;;;;4991615;28;20203;-83
2023/06/29 00:57:10;;;;;;;1.70;1.60;;;18.50;66.20;17.60;96595.00;;;;4997871;28;20199;-83
2023/06/29 00:59:37;;;;;;;1.60;1.50;;;18.50;66.30;17.60;96594.00;;;;5013332;28;20214;-83
2023/06/29 01:02:04;;;;;;;1.40;1.30;;;18.50;66.30;17.60;96590.00;;;;5011836;28;20208;-83
2023/06/29 01:04:33;;;;;;;1.53;1.43;;;18.50;66.40;17.60;96592.00;;;;5008092;28;20285;-83
2023/06/29 01:07:19;;;;;;;1.30;1.20;;;18.50;66.40;17.50;96586.00;;;;5001156;28;20617;-83
2023/06/29 01:09:48;;;;;;;1.97;1.50;;;18.40;66.10;17.50;96598.00;;;;5006185;28;20248;-83
2023/06/29 01:12:16;;;;;;;1.40;1.30;;;18.40;66.30;17.50;96594.00;;;;5010805;28;20218;-83
2023/06/29 01:14:45;;;;;;;1.43;1.33;;;18.40;66.30;17.40;96598.00;;;;4986917;28;20217;-83
2023/06/29 01:17:17;;;;;;;1.53;1.40;;;18.40;66.30;17.40;96587.00;;;;5006955;28;20209;-83
2023/06/29 01:19:49;;;;;;;1.53;1.43;;;18.30;66.30;17.40;96584.00;;;;5010599;28;20213;-83
2023/06/29 01:22:22;;;;;;;2.60;2.00;;;18.30;66.40;17.30;96582.00;;;;5014488;28;20255;-83
2023/06/29 01:24:51;;;;;;;1.90;1.70;;;18.30;66.60;17.30;96581.00;;;;5003389;28;20198;-83
2023/06/29 01:27:20;;;;;;;1.93;1.83;;;18.30;66.80;17.30;96570.00;;;;5014602;28;20635;-83
2023/06/29 01:29:47;;;;;;;1.97;1.80;;;18.30;66.90;17.30;96571.00;;;;5008151;28;20287;-83
2023/06/29 01:32:14;;;;;;;1.70;1.60;;;18.20;67.00;17.30;96570.00;;;;5012196;28;20606;-83
2023/06/29 01:34:42;;;;;;;1.87;1.77;;;18.20;67.10;17.30;96565.00;;;;5004561;28;20203;-83
2023/06/29 01:37:14;;;;;;;1.53;1.43;;;18.20;67.30;17.30;96570.00;;;;5009959;28;20206;-83
2023/06/29 01:39:54;;;;;;;1.83;1.73;;;18.20;67.30;17.20;96572.00;;;;5005244;28;20301;-83
2023/06/29 01:42:26;;;;;;;1.63;1.53;;;18.20;67.20;17.20;96568.00;;;;5005601;28;20286;-83
2023/06/29 01:44:54;;;;;;;1.63;1.53;;;18.20;67.20;17.20;96561.00;;;;4996874;28;20226;-83
2023/06/29 01:47:23;;;;;;;2.40;1.80;;;18.20;67.20;17.20;96565.00;;;;5004726;28;20210;-83
2023/06/29 01:49:50;;;;;;;4.13;2.53;;;18.10;67.20;17.20;96555.00;;;;5002408;28;20224;-83
2023/06/29 01:52:18;;;;;;;2.00;1.90;;;18.10;67.40;17.20;96558.00;;;;5003378;28;20229;-83
2023/06/29 01:54:45;;;;;;;1.90;1.70;;;18.10;67.60;17.10;96559.00;;;;5006393;28;20218;-83
2023/06/29 01:57:13;;;;;;;2.00;1.80;;;18.10;68.50;17.20;96560.00;;;;5008856;28;20197;-83
2023/06/29 01:59:42;;;;;;;1.80;1.70;;;18.10;67.80;17.10;96556.00;;;;5011680;28;20229;-83
2023/06/29 02:02:09;;;;;;;1.63;1.53;;;18.10;67.60;17.10;96556.00;;;;5013080;28;20206;-83
2023/06/29 02:04:36;;;;;;;1.53;1.43;;;18.10;68.30;17.10;96559.00;;;;5006408;28;20285;-83
2023/06/29 02:07:04;;;;;;;1.73;1.63;;;18.10;67.50;17.10;96555.00;;;;4982383;28;20199;-83
2023/06/29 02:09:31;;;;;;;2.13;2.00;;;18.10;67.40;17.10;96553.00;;;;5004946;28;20719;-83
2023/06/29 02:11:58;;;;;;;2.60;1.90;;;18.00;67.30;17.00;96553.00;;;;5006533;28;20602;-83
2023/06/29 02:14:28;;;;;;;2.20;2.10;;;18.00;67.40;17.00;96557.00;;;;5013539;28;20209;-83
2023/06/29 02:16:56;;;;;;;2.10;2.00;;;18.00;67.60;17.00;96553.00;;;;5001695;28;20682;-83
2023/06/29 02:19:24;;;;;;;1.90;1.80;;;18.00;67.70;17.00;96558.00;;;;5009413;28;20221;-83
2023/06/29 02:21:51;;;;;;;2.07;1.93;;;17.90;67.70;17.00;96555.00;;;;4995249;28;20199;-83
2023/06/29 02:24:18;;;;;;;2.20;2.00;;;17.90;68.50;16.90;96555.00;;;;5011617;28;20249;-83
2023/06/29 02:26:45;;;;;;;2.03;1.90;;;17.90;68.00;16.90;96549.00;;;;4989625;28;20429;-83
2023/06/29 02:29:12;;;;;;;3.20;2.20;;;17.90;68.20;16.90;96551.00;;;;5000648;28;20604;-82
2023/06/29 02:31:39;;;;;;;1.87;1.77;;;17.80;68.80;16.90;96543.00;;;;5016501;28;20222;-83
2023/06/29 02:34:08;;;;;;;2.53;2.20;;;17.80;68.20;16.90;96539.00;;;;5014982;28;20202;-83
2023/06/29 02:36:36;;;;;;;2.33;2.17;;;17.80;68.20;16.80;96544.00;;;;5003757;28;20289;-83
2023/06/29 02:39:04;;;;;;;1.90;1.60;;;17.80;69.10;16.80;96547.00;;;;5007867;28;20580;-83
2023/06/29 02:41:31;;;;;;;2.03;1.83;;;17.80;68.50;16.80;96550.00;;;;4998377;28;20237;-83
2023/06/29 02:43:59;;;;;;;2.33;2.13;;;17.80;68.40;16.80;96545.00;;;;5007736;28;20217;-83
2023/06/29 02:46:26;;;;;;;1.97;1.87;;;17.80;68.40;16.80;96536.00;;;;4998868;28;20212;-83
2023/06/29 02:48:53;;;;;;;2.17;2.07;;;17.80;68.50;16.80;96543.00;;;;4983510;28;20227;-82
2023/06/29 02:51:22;;;;;;;3.07;1.90;;;17.80;68.30;16.70;96546.00;;;;4993920;28;20227;-83
2023/06/29 02:53:49;;;;;;;1.77;1.67;;;17.70;68.20;16.70;96550.00;;;;5000663;28;20749;-83
2023/06/29 02:56:16;;;;;;;2.10;2.00;;;17.70;68.20;16.70;96538.00;;;;5008386;28;20202;-83
2023/06/29 02:58:43;;;;;;;2.40;2.20;;;17.70;68.20;16.70;96549.00;;;;4999699;28;20218;-83
2023/06/29 03:01:10;;;;;;;2.40;2.20;;;17.70;68.50;16.70;96544.00;;;;5008802;28;20208;-83
2023/06/29 03:03:37;;;;;;;2.37;2.00;;;17.70;68.60;16.70;96547.00;;;;5012307;28;20673;-82
2023/06/29 03:06:05;;;;;;;2.13;1.93;;;17.60;68.60;16.70;96541.00;;;;5005841;28;20194;-83
2023/06/29 03:08:33;;;;;;;3.17;2.30;;;17.60;68.70;16.70;96541.00;;;;5001597;28;20294;-83
2023/06/29 03:11:01;;;;;;;2.60;2.40;;;17.60;68.80;16.70;96530.00;;;;5009934;28;20204;-83
2023/06/29 03:13:28;;;;;;;2.27;2.13;;;17.60;68.90;16.60;96534.00;;;;5010924;28;20190;-83
2023/06/29 03:15:59;;;;;;;3.10;2.50;;;17.60;69.00;16.70;96536.00;;;;5006187;28;20198;-83
2023/06/29 03:18:26;;;;;;;1.93;1.83;;;17.60;69.10;16.70;96538.00;;;;5002274;28;20225;-83
2023/06/29 03:20:53;;;;;;;2.27;1.90;;;17.60;69.20;16.70;96538.00;;;;5003449;28;20198;-83
2023/06/29 03:23:20;;;;;;;3.50;2.30;;;17.60;69.30;16.70;96535.00;;;;5010079;28;20645;-83
2023/06/29 03:25:49;;;;;;;3.20;2.57;;;17.60;69.20;16.70;96533.00;;;;5010863;28;20205;-83
2023/06/29 03:28:16;;;;;;;2.37;2.17;;;17.60;69.30;16.60;96542.00;;;;5004952;28;20222;-82
2023/06/29 03:30:45;;;;;;;2.30;2.17;;;17.60;69.30;16.60;96536.00;;;;5005366;28;20202;-83
2023/06/29 03:33:13;;;;;;;2.20;2.10;;;17.60;69.10;16.60;96541.00;;;;5015339;28;20799;-83
2023/06/29 03:35:40;;;;;;;2.43;2.00;;;17.60;69.10;16.60;96540.00;;;;5003685;28;20195;-83
2023/06/29 03:38:08;;;;;;;2.20;2.00;;;17.60;69.10;16.60;96537.00;;;;5001345;28;20277;-83
2023/06/29 03:40:36;;;;;;;4.03;2.60;;;17.60;69.10;16.60;96534.00;;;;5003549;28;20226;-83
2023/06/29 03:43:05;;;;;;;2.30;2.10;;;17.50;68.90;16.50;96540.00;;;;4996279;28;20209;-83
2023/06/29 03:45:34;;;;;;;2.37;2.17;;;17.50;68.80;16.50;96542.00;;;;4994956;28;20203;-83
2023/06/29 03:48:02;;;;;;;2.17;2.07;;;17.50;69.00;16.50;96534.00;;;;5004238;28;20202;-83
2023/06/29 03:50:29;;;;;;;2.43;2.23;;;17.50;69.00;16.50;96535.00;;;;5014003;28;20198;-83
2023/06/29 03:52:56;;;;;;;2.50;2.30;;;17.50;69.10;16.50;96533.00;;;;5015780;28;20320;-83
2023/06/29 03:55:24;;;;;;;2.47;2.33;;;17.40;69.30;16.50;96532.00;;;;5007593;28;20198;-83
2023/06/29 03:57:54;;;;;;;2.40;2.20;;;17.40;70.20;16.50;96530.00;;;;5001060;28;20203;-83
2023/06/29 04:00:23;;;;;;;2.67;2.13;;;17.40;69.60;16.50;96531.00;;;;4998714;28;20199;-83
2023/06/29 04:02:52;;;;;;;2.83;2.63;;;17.40;69.70;16.50;96529.00;;;;5015169;28;20206;-83
2023/06/29 04:05:23;;;;;;;2.23;2.03;;;17.40;69.60;16.50;96529.00;;;;5013910;28;20213;-83
2023/06/29 04:07:51;;;;;;;2.20;2.10;;;17.40;69.70;16.50;96527.00;;;;5004970;28;20198;-83
2023/06/29 04:10:18;;;;;;;2.57;2.37;;;17.40;69.90;16.50;96532.00;;;;5006781;28;20206;-83
2023/06/29 04:12:47;;;;;;;2.27;2.00;;;17.40;70.00;16.50;96533.00;;;;5013042;28;20272;-83
2023/06/29 04:15:14;;;;;;;2.57;2.37;;;17.50;70.20;16.60;96537.00;;;;5018080;28;20193;-81
2023/06/29 04:17:43;;;;;;;2.30;2.10;;;17.50;70.30;16.60;96530.00;;;;5005909;28;20678;-85
2023/06/29 04:20:12;;;;;;;2.83;2.63;;;17.50;71.10;16.60;96528.00;;;;4999542;28;20224;-85
2023/06/29 04:22:39;;;;;;;3.00;2.57;;;17.50;70.40;16.70;96530.00;;;;5010944;28;20198;-83
2023/06/29 04:25:08;;;;;;;3.00;2.70;;;17.50;70.50;16.70;96529.00;;;;5012970;28;20685;-80
2023/06/29 04:27:35;;;;;;;2.43;2.30;;;17.60;70.70;16.80;96535.00;;;;5009069;28;20201;-79
2023/06/29 04:30:04;;;;;;;2.90;2.70;;;17.60;70.80;16.80;96532.00;;;;5001801;28;20722;-80
2023/06/29 04:32:31;;;;;;;2.67;2.50;;;17.70;70.80;16.80;96526.00;;;;5003008;28;20218;-80
2023/06/29 04:35:01;;;;;;;3.13;2.93;;;17.70;70.80;16.80;96529.00;;;;5006004;28;20198;-79
2023/06/29 04:37:40;;;;;;;2.40;2.23;;;17.70;71.50;16.80;96531.00;;;;5006207;28;20244;-79
2023/06/29 04:40:10;;;;;;;2.57;2.20;;;17.80;70.90;16.90;96531.00;;;;4987012;28;20225;-79
2023/06/29 04:42:43;;;;;;;2.63;2.37;;;17.80;70.80;16.90;96533.00;;;;4999722;28;20209;-79
2023/06/29 04:45:17;;;;;;;2.33;2.23;;;17.80;70.90;16.90;96535.00;;;;5006347;28;20202;-79
2023/06/29 04:47:46;;;;;;;2.50;2.27;;;17.80;71.00;17.00;96523.00;;;;5008488;28;20195;-80
2023/06/29 04:50:15;;;;;;;2.53;2.33;;;17.90;71.20;17.00;96523.00;;;;4993891;28;20215;-79
2023/06/29 04:52:43;;;;;;;2.70;2.53;;;17.90;71.40;17.00;96520.00;;;;4993436;28;20218;-80
2023/06/29 04:55:11;;;;;;;3.07;2.87;;;17.90;71.50;17.00;96525.00;;;;4999267;28;20290;-80
2023/06/29 04:57:38;;;;;;;5.73;3.17;;;17.90;71.60;17.10;96520.00;;;;5005162;28;20208;-80
2023/06/29 05:00:10;;;;;;;3.00;2.73;;;18.00;71.80;17.10;96521.00;;;;5013322;28;20228;-79
2023/06/29 05:02:38;;;;;;;2.63;2.43;;;18.00;71.90;17.20;96524.00;;;;5007264;28;20261;-80
2023/06/29 05:05:06;;;;;;;3.03;2.73;;;18.00;72.00;17.20;96523.00;;;;4996934;28;20206;-80
2023/06/29 05:07:37;;;;;;;3.07;2.50;;;18.00;72.00;17.30;96520.00;;;;5001844;28;20575;-79
2023/06/29 05:10:06;;;;;;;3.37;3.17;;;18.10;72.10;17.30;96515.00;;;;5008888;28;20706;-79
2023/06/29 05:12:33;;;;;;;3.00;2.67;;;18.10;72.10;17.30;96505.00;;;;5011862;28;20222;-81
2023/06/29 05:15:02;;;;;;;3.07;2.73;;;18.20;72.30;17.40;96510.00;;;;5010419;28;20208;-80
2023/06/29 05:17:29;;;;;;;2.50;2.30;;;18.20;72.30;17.50;96510.00;;;;5002788;28;20203;-82
2023/06/29 05:19:56;;;;;;;2.80;2.60;;;18.20;72.30;17.50;96518.00;;;;4999141;28;20297;-86
2023/06/29 05:22:24;;;;;;;2.80;2.70;;;18.30;72.30;17.50;96513.00;;;;5013552;28;20663;-80
2023/06/29 05:24:52;;;;;;;4.30;2.70;;;18.30;72.20;17.60;96514.00;;;;5003375;28;20202;-79
2023/06/29 05:27:20;;;;;;;3.00;2.80;;;18.40;72.30;17.60;96518.00;;;;5002837;28;20679;-79
2023/06/29 05:29:47;;;;;;;3.30;3.10;;;18.40;72.30;17.70;96518.00;;;;4995902;28;20236;-80
2023/06/29 05:32:14;;;;;;;3.13;2.93;;;18.40;72.00;17.80;96519.00;;;;5010413;28;20229;-80
2023/06/29 05:34:42;;;;;;;2.90;2.60;;;18.50;71.90;17.80;96517.00;;;;5008796;28;20685;-79
2023/06/29 05:37:09;;;;;;;2.97;2.77;;;18.50;71.90;17.90;96516.00;;;;5010074;28;20202;-79
2023/06/29 05:39:36;;;;;;;3.03;2.80;;;18.60;71.90;18.00;96524.00;;;;4992461;28;20218;-79
2023/06/29 05:42:06;;;;;;;2.77;2.63;;;18.60;72.60;18.00;96521.00;;;;5004747;28;20202;-79
2023/06/29 05:44:33;;;;;;;2.63;2.43;;;18.70;71.70;18.10;96528.00;;;;5014232;28;20714;-80
2023/06/29 05:47:00;;;;;;;2.80;2.60;;;18.80;71.50;18.20;96515.00;;;;5007785;28;20286;-80
2023/06/29 05:49:27;;;;;;;3.33;3.13;;;18.80;71.30;18.30;96517.00;;;;4984905;28;20602;-80
2023/06/29 05:51:55;;;;;;;2.77;2.33;;;18.90;71.40;18.40;96520.00;;;;5012619;28;20284;-80
2023/06/29 05:54:22;;;;;;;3.97;2.90;;;19.00;71.60;18.50;96519.00;;;;4993285;28;20202;-80
2023/06/29 05:56:49;;;;;;;3.33;3.07;;;19.10;71.30;18.60;96518.00;;;;4999513;28;20744;-80
2023/06/29 05:59:18;;;;;;;3.67;2.80;;;19.10;70.90;18.60;96514.00;;;;5012543;28;20228;-80
2023/06/29 06:01:45;;;;;;;3.27;2.63;;;19.20;70.60;18.80;96515.00;;;;5002134;28;20253;-80
2023/06/29 06:04:13;;;;;;;3.80;3.50;;;19.30;70.70;18.90;96515.00;;;;4998016;28;20237;-80
2023/06/29 06:06:40;;;;;;;3.07;2.80;;;19.40;70.70;19.00;96515.00;;;;5007522;28;20204;-80
2023/06/29 06:09:07;;;;;;;2.73;2.53;;;19.50;70.70;19.10;96521.00;;;;4992786;28;20227;-80
2023/06/29 06:11:34;;;;;;;3.17;2.77;;;19.60;70.60;19.20;96515.00;;;;4998637;28;20194;-80
2023/06/29 06:14:02;;;;;;;3.27;2.67;;;19.70;70.70;19.20;96508.00;;;;4997685;28;20593;-80
2023/06/29 06:16:30;;;;;;;2.80;2.60;;;19.80;70.60;19.30;96509.00;;;;5002565;28;20194;-80
2023/06/29 06:18:57;;;;;;;3.30;3.00;;;19.90;70.80;19.40;96517.00;;;;5003132;28;20223;-80
2023/06/29 06:21:25;;;;;;;4.60;3.07;;;20.00;70.90;19.50;96514.00;;;;5000837;28;20205;-80
2023/06/29 06:23:53;;;;;;;3.03;2.73;;;20.00;70.60;19.60;96516.00;;;;4997689;28;20209;-80
2023/06/29 06:26:20;;;;;;;3.87;2.93;;;20.10;70.50;19.70;96515.00;;;;5010828;28;20282;-80
2023/06/29 06:28:47;;;;;;;4.57;2.70;;;20.20;70.60;19.70;96506.00;;;;5014131;28;20224;-80
2023/06/29 06:31:14;;;;;;;2.30;2.10;;;20.30;70.20;19.80;96505.00;;;;5017418;28;20289;-80
2023/06/29 06:33:43;;;;;;;2.00;1.90;;;20.40;69.60;19.90;96513.00;;;;5004692;28;20698;-80
2023/06/29 06:36:10;;;;;;;2.27;2.07;;;20.40;69.10;20.00;96510.00;;;;5012804;28;20209;-80
2023/06/29 06:38:38;;;;;;;3.37;2.47;;;20.50;69.20;20.10;96510.00;;;;5023220;28;20257;-80
2023/06/29 06:41:05;;;;;;;2.70;2.50;;;20.60;69.40;20.20;96515.00;;;;5015450;28;21128;-82
2023/06/29 06:43:32;;;;;;;2.73;2.30;;;20.70;69.40;20.30;96518.00;;;;5022493;28;20287;-80
2023/06/29 06:46:00;;;;;;;2.63;2.43;;;20.80;69.60;20.40;96515.00;;;;5003494;28;20277;-80
2023/06/29 06:48:28;;;;;;;3.23;2.77;;;20.90;69.50;20.50;96522.00;;;;5011903;28;20737;-80
2023/06/29 06:50:57;;;;;;;2.93;2.73;;;21.00;69.50;20.60;96515.00;;;;5014427;28;20206;-80
2023/06/29 06:53:24;;;;;;;2.70;2.50;;;21.10;69.20;20.70;96514.00;;;;5015908;28;20264;-80
2023/06/29 06:55:51;;;;;;;3.43;2.50;;;21.20;69.20;20.80;96512.00;;;;5007569;28;20194;-80
2023/06/29 06:58:18;;;;;;;2.30;2.10;;;21.30;69.00;20.90;96513.00;;;;5010764;28;20222;-79
2023/06/29 07:00:45;;;;;;;2.40;2.20;;;21.40;68.80;21.00;96513.00;;;;5006211;28;20639;-80
2023/06/29 07:03:12;;;;;;;2.40;2.20;;;21.50;68.70;21.20;96512.00;;;;5008050;28;20289;-80
2023/06/29 07:05:39;;;;;;;2.57;2.10;;;21.60;68.70;21.30;96509.00;;;;5006551;28;20195;-80
2023/06/29 07:08:08;;;;;;;2.77;2.23;;;21.70;68.90;21.40;96511.00;;;;5009659;28;20206;-80
2023/06/29 07:10:35;;;;;;;1.93;1.60;;;21.80;68.60;21.60;96509.00;;;;5007372;28;20230;-80
2023/06/29 07:13:02;;;;;;;2.90;1.90;;;21.90;68.80;21.70;96515.00;;;;5008661;28;20218;-80
2023/06/29 07:15:29;;;;;;;2.90;1.93;;;22.10;68.00;21.90;96514.00;;;;5002709;28;20786;-80
2023/06/29 07:17:57;;;;;;;2.20;2.00;;;22.20;68.00;22.00;96510.00;;;;4998412;28;20199;-80
2023/06/29 07:20:24;;;;;;;2.10;1.87;;;22.40;68.00;22.20;96517.00;;;;4991063;28;20235;-80
2023/06/29 07:22:51;;;;;;;2.43;2.10;;;22.50;67.70;22.40;96509.00;;;;4996454;28;20198;-80
2023/06/29 07:25:20;;;;;;;2.33;1.80;;;22.70;67.00;22.60;96511.00;;;;4995513;28;20295;-80
2023/06/29 07:27:47;;;;;;;1.80;1.70;;;22.80;66.60;22.70;96506.00;;;;5007460;28;20198;-80
2023/06/29 07:30:16;;;;;;;2.33;1.63;;;23.00;66.30;22.90;96512.00;;;;4991863;28;20229;-80
2023/06/29 07:32:43;;;;;;;1.63;1.53;;;23.20;66.20;23.10;96510.00;;;;4992491;28;20309;-80
2023/06/29 07:35:11;;;;;;;1.90;1.60;;;23.40;66.30;23.20;96506.00;;;;4999392;28;20659;-80
2023/06/29 07:37:38;;;;;;;1.67;1.57;;;23.50;66.10;23.40;96505.00;;;;5009286;28;20225;-80
2023/06/29 07:40:08;;;;;;;1.90;1.70;;;23.70;66.00;23.60;96505.00;;;;4995528;28;20261;-80
2023/06/29 07:42:38;;;;;;;1.93;1.63;;;23.90;65.50;23.70;96502.00;;;;4994598;28;20285;-80
2023/06/29 07:45:07;;;;;;;1.63;1.53;;;24.00;65.00;23.90;96509.00;;;;5001339;28;20212;-80
2023/06/29 07:47:35;;;;;;;1.90;1.67;;;24.20;64.90;24.00;96501.00;;;;5011098;28;20224;-80
2023/06/29 07:50:02;;;;;;;2.33;1.60;;;24.30;64.70;24.20;96506.00;;;;4998672;28;20219;-79
2023/06/29 07:52:30;;;;;;;2.70;1.47;;;24.40;63.90;24.30;96503.00;;;;4994399;28;20623;-80
2023/06/29 07:54:57;;;;;;;1.77;1.40;;;24.60;62.90;24.50;96500.00;;;;4993549;28;20217;-80
2023/06/29 07:57:25;;;;;;;2.80;1.43;;;24.80;62.70;24.60;96507.00;;;;5002120;28;20199;-80
2023/06/29 07:59:53;;;;;;;2.10;1.50;;;24.90;61.80;24.80;96505.00;;;;4984240;28;20706;-80
2023/06/29 08:02:21;;;;;;;5.67;1.50;;;25.10;61.20;25.00;96500.00;;;;4993113;28;20618;-80
2023/06/29 08:04:50;;;;;;;1.47;1.37;;;25.20;60.80;25.20;96507.00;;;;4993421;28;20681;-80
2023/06/29 08:07:17;;;;;;;2.10;1.07;;;25.40;61.80;25.40;96512.00;;;;5000412;28;20198;-80
2023/06/29 08:09:44;;;;;;;2.40;1.50;;;25.60;60.70;25.50;96511.00;;;;4995581;28;20249;-80
2023/06/29 08:12:12;;;;;;;2.23;1.37;;;25.80;60.40;25.70;96501.00;;;;5011132;28;20198;-80
2023/06/29 08:14:39;;;;;;;1.40;1.23;;;25.90;60.30;25.80;96500.00;;;;4991018;28;20218;-80
2023/06/29 08:17:08;;;;;;;2.03;1.50;;;26.00;59.80;26.00;96505.00;;;;5006382;28;20256;-80
2023/06/29 08:19:35;;;;;;;2.37;1.37;;;26.20;59.10;26.10;96503.00;;;;4992278;28;20224;-80
2023/06/29 08:22:03;;;;;;;5.90;1.10;;;26.30;59.20;26.20;96500.00;;;;4992989;28;20248;-80
2023/06/29 08:24:30;;;;;;;1.50;1.20;;;26.50;58.60;26.40;96498.00;;;;4993391;28;20198;-80
2023/06/29 08:26:57;;;;;;;1.30;1.20;;;26.60;58.50;26.50;96499.00;;;;5005412;28;20284;-80
2023/06/29 08:29:24;;;;;;;2.80;1.17;;;26.70;58.60;26.70;96501.00;;;;5004284;28;20236;-80
2023/06/29 08:31:51;;;;;;;2.07;1.37;;;26.90;58.50;26.80;96503.00;;;;4999708;28;20285;-80
2023/06/29 08:34:20;;;;;;;1.10;1.00;;;27.00;57.90;26.90;96491.00;;;;4992752;28;20222;-80
2023/06/29 08:36:47;;;;;;;1.67;0.95;;;27.20;58.00;27.10;96491.00;;;;5001536;28;20276;-80
2023/06/29 08:39:14;;;;;;;1.15;1.08;;;27.30;57.00;27.20;96484.00;;;;5000803;28;20253;-80
2023/06/29 08:41:41;;;;;;;1.05;0.90;;;27.40;56.30;27.40;96489.00;;;;5000772;28;20199;-80
2023/06/29 08:44:08;;;;;;;1.33;1.00;;;27.60;55.80;27.50;96487.00;;;;5007946;28;20292;-80
2023/06/29 08:46:39;;;;;;;3.03;0.90;;;27.70;55.50;27.70;96494.00;;;;5007381;28;20204;-80
2023/06/29 08:49:09;;;;;;;1.50;0.77;;;27.80;54.70;27.80;96494.00;;;;4999288;28;20253;-80
2023/06/29 08:51:42;;;;;;;1.05;0.82;;;28.00;54.20;28.00;96488.00;;;;5001682;28;20203;-80
2023/06/29 08:54:12;;;;;;;1.23;0.95;;;28.10;53.20;28.10;96491.00;;;;4992820;28;20218;-80
2023/06/29 08:56:39;;;;;;;0.90;0.90;;;28.30;53.60;28.20;96490.00;;;;5001695;28;20206;-80
2023/06/29 08:59:07;;;;;;;1.83;0.95;;;28.40;53.00;28.40;96492.00;;;;5004747;28;20309;-80
2023/06/29 09:01:35;;;;;;;2.45;1.35;;;28.50;52.60;28.50;96485.00;;;;5010811;28;20221;-80
2023/06/29 09:04:03;;;;;;;1.75;1.10;;;28.70;51.40;28.70;96475.00;;;;4994303;28;20289;-80
2023/06/29 09:06:32;;;;;;;2.30;1.00;;;28.80;51.60;28.80;96477.00;;;;5004326;28;20285;-80
2023/06/29 09:09:01;;;;;;;1.25;0.80;;;28.90;52.20;28.90;96475.00;;;;5001349;28;20233;-80
2023/06/29 09:11:35;;;;;;;0.95;0.75;;;29.10;52.20;29.10;96471.00;;;;4993487;28;20203;-80
2023/06/29 09:14:06;;;;;;;1.30;0.82;;;29.20;52.20;29.20;96463.00;;;;5005349;28;20843;-80
2023/06/29 09:16:34;;;;;;;0.90;0.90;;;29.40;51.90;29.40;96467.00;;;;4997381;28;20622;-80
2023/06/29 09:19:01;;;;;;;3.13;0.95;;;29.50;51.90;29.50;96468.00;;;;5006843;28;20236;-80
2023/06/29 09:21:29;;;;;;;1.05;0.70;;;29.70;52.30;29.70;96465.00;;;;5015507;28;20292;-80
2023/06/29 09:23:59;;;;;;;0.90;0.68;;;29.80;51.40;29.80;96457.00;;;;5014880;28;20233;-80
2023/06/29 09:26:30;;;;;;;0.82;0.80;;;30.00;51.00;30.00;96460.00;;;;5013818;28;20201;-80
2023/06/29 09:28:59;;;;;;;1.35;0.88;;;30.10;49.10;30.10;96456.00;;;;5004403;28;20229;-80
2023/06/29 09:31:32;;;;;;;8.38;1.50;;;30.30;49.10;30.30;96455.00;;;;4996645;28;20652;-80
2023/06/29 09:34:17;;;;;;;2.45;0.90;;;30.40;48.80;30.40;96451.00;;;;4996421;28;20249;-80
2023/06/29 09:36:45;;;;;;;10.18;1.50;;;30.60;47.00;30.60;96455.00;;;;5004486;28;20199;-80
2023/06/29 09:39:13;;;;;;;9.57;1.50;;;30.80;49.20;30.80;96457.00;;;;5003887;28;20226;-80
2023/06/29 09:41:49;;;;;;;3.25;1.38;;;30.90;48.90;30.90;96454.00;;;;4994764;28;20652;-81
2023/06/29 09:44:19;;;;;;;18.20;2.00;;;31.10;47.20;31.00;96447.00;;;;4996146;28;20225;-80
2023/06/29 09:46:46;;;;;;;2.20;1.05;;;31.20;48.30;31.20;96439.00;;;;5000174;28;20648;-80
2023/06/29 09:49:14;;;;;;;1.13;0.60;;;31.40;48.40;31.30;96445.00;;;;5007423;28;20220;-79
2023/06/29 09:51:42;;;;;;;0.80;0.70;;;31.60;48.00;31.50;96442.00;;;;4998329;28;20198;-80
2023/06/29 09:54:13;;;;;;;0.80;0.80;;;31.80;47.80;31.60;96438.00;;;;5013252;28;20272;-80
2023/06/29 09:56:40;;;;;;;1.52;0.80;;;32.00;46.70;31.80;96434.00;;;;5012763;28;20206;-80
2023/06/29 09:59:11;;;;;;;1.55;0.90;;;32.20;47.20;32.00;96439.00;;;;5005084;28;20245;-79
2023/06/29 10:01:38;;;;;;;0.98;0.82;;;32.50;46.40;32.20;96432.00;;;;5003017;28;20675;-80
2023/06/29 10:04:05;;;;;;;2.17;0.75;;;32.70;46.80;32.30;96437.00;;;;4994701;28;20694;-80
2023/06/29 10:06:43;;;;;;;1.25;0.80;;;33.00;46.60;32.50;96436.00;;;;5004093;28;20197;-80
2023/06/29 10:09:13;;;;;;;1.83;0.70;;;33.30;45.70;32.70;96441.00;;;;5007058;28;20226;-80
2023/06/29 10:11:43;;;;;;;0.93;0.63;;;33.60;46.50;32.90;96435.00;;;;4995150;28;20266;-80
2023/06/29 10:14:15;;;;;;;0.70;0.70;;;33.90;45.80;33.10;96437.00;;;;4996069;28;20313;-80
2023/06/29 10:16:48;;;;;;;1.10;0.80;;;34.10;44.80;33.20;96439.00;;;;4998091;28;20194;-80
2023/06/29 10:19:19;;;;;;;0.93;0.77;;;34.40;44.40;33.40;96432.00;;;;5005877;28;20310;-80
2023/06/29 10:21:52;;;;;;;2.03;1.05;;;34.60;44.50;33.50;96430.00;;;;4995677;28;20231;-80
2023/06/29 10:24:26;;;;;;;1.30;0.95;;;34.80;44.30;33.70;96426.00;;;;5003035;28;20198;-80
2023/06/29 10:26:56;;;;;;;1.95;0.82;;;35.00;43.80;33.80;96423.00;;;;5013310;28;20658;-79
2023/06/29 10:29:25;;;;;;;0.68;0.68;;;35.20;44.30;34.00;96432.00;;;;5003942;28;20233;-80
2023/06/29 10:31:57;;;;;;;0.85;0.80;;;35.30;43.40;34.10;96431.00;;;;4995195;28;20208;-80
2023/06/29 10:34:26;;;;;;;0.70;0.70;;;35.40;42.20;34.20;96428.00;;;;4993974;28;20233;-80
2023/06/29 10:36:58;;;;;;;0.65;0.65;;;35.50;43.00;34.30;96430.00;;;;5007343;28;20205;-80
2023/06/29 10:39:43;;;;;;;0.70;0.70;;;35.60;42.70;34.40;96432.00;;;;5006584;28;20218;-80
2023/06/29 10:42:15;;;;;;;1.30;0.82;;;35.70;40.30;34.50;96426.00;;;;5013735;28;20579;-80
2023/06/29 10:44:48;;;;;;;0.60;0.60;;;35.70;42.30;34.50;96418.00;;;;5014589;28;20285;-80
2023/06/29 10:47:29;;;;;;;1.13;0.82;;;35.70;41.20;34.60;96423.00;;;;5015795;28;20194;-83
2023/06/29 10:50:21;;;;;;;1.27;0.80;;;35.70;39.60;34.60;96422.00;;;;5010719;28;20221;-83
2023/06/29 10:52:49;;;;;;;1.13;0.70;;;35.70;39.80;34.70;96419.00;;;;5002335;28;20202;-83
2023/06/29 10:55:19;;;;;;;0.88;0.88;;;35.70;42.20;34.70;96414.00;;;;5012037;28;20309;-83
2023/06/29 10:57:47;;;;;;;1.20;0.90;;;35.60;41.70;34.70;96414.00;;;;5002042;28;20201;-83
2023/06/29 11:00:18;;;;;;;1.67;0.80;;;35.60;41.50;34.60;96407.00;;;;5001022;28;20301;-83